createdAt,value
2022-08-07T00:00:24.217Z,70.20
2022-08-07T00:02:50.556Z,70.30
2022-08-07T00:05:19.717Z,70.20
2022-08-07T00:07:45.753Z,70.20
2022-08-07T00:10:26.580Z,70.30
2022-08-07T00:12:59.734Z,70.30
2022-08-07T00:15:37.739Z,70.30
2022-08-07T00:18:19.492Z,70.50
2022-08-07T00:20:48.517Z,70.60
2022-08-07T00:23:16.943Z,70.70
2022-08-07T00:25:43.149Z,70.90
2022-08-07T00:28:12.251Z,70.90
2022-08-07T00:30:41.449Z,71.10
2022-08-07T00:33:07.699Z,71.10
2022-08-07T00:35:34.082Z,71.10
2022-08-07T00:38:03.460Z,71.10
2022-08-07T00:40:39.043Z,71.20
2022-08-07T00:43:09.673Z,71.40
2022-08-07T00:45:38.140Z,71.30
2022-08-07T00:48:09.666Z,71.40
2022-08-07T00:50:50.467Z,71.50
2022-08-07T00:53:20.140Z,71.40
2022-08-07T00:56:02.484Z,71.50
2022-08-07T00:58:29.685Z,71.30
2022-08-07T01:00:55.709Z,71.40
2022-08-07T01:03:54.817Z,71.60
2022-08-07T01:06:08.469Z,71.90
2022-08-07T01:08:34.488Z,72.00
2022-08-07T01:11:00.856Z,72.00
2022-08-07T01:13:55.744Z,72.10
2022-08-07T01:16:30.219Z,72.30
2022-08-07T01:18:56.813Z,72.40
2022-08-07T01:21:26.969Z,72.50
2022-08-07T01:23:56.200Z,72.60
2022-08-07T01:26:22.393Z,72.70
2022-08-07T01:28:53.220Z,72.60
2022-08-07T01:31:20.013Z,72.70
2022-08-07T01:33:53.577Z,72.70
2022-08-07T01:36:22.928Z,72.80
2022-08-07T01:39:00.270Z,72.80
2022-08-07T01:41:27.048Z,72.90
2022-08-07T01:43:53.128Z,72.90
2022-08-07T01:46:19.654Z,73.10
2022-08-07T01:48:48.070Z,73.20
2022-08-07T01:52:01.116Z,73.30
2022-08-07T01:54:12.594Z,73.60
2022-08-07T01:56:52.879Z,73.80
2022-08-07T01:59:39.193Z,73.80
2022-08-07T02:02:32.629Z,74.00
2022-08-07T02:05:06.898Z,74.30
2022-08-07T02:07:44.839Z,74.10
2022-08-07T02:10:17.153Z,74.20
2022-08-07T02:12:46.503Z,74.40
2022-08-07T02:15:20.625Z,74.30
2022-08-07T02:17:49.320Z,74.20
2022-08-07T02:20:17.324Z,74.10
2022-08-07T02:22:46.388Z,74.20
2022-08-07T02:25:18.163Z,74.40
2022-08-07T02:27:51.985Z,74.40
2022-08-07T02:30:19.090Z,74.60
2022-08-07T02:33:00.972Z,74.60
2022-08-07T02:36:30.673Z,74.70
2022-08-07T02:38:22.705Z,74.80
2022-08-07T02:40:56.100Z,74.80
2022-08-07T02:43:22.281Z,74.70
2022-08-07T02:45:59.354Z,74.80
2022-08-07T02:48:28.231Z,74.90
2022-08-07T02:50:55.313Z,75.00
2022-08-07T02:53:28.095Z,75.00
2022-08-07T02:56:03.388Z,75.00
2022-08-07T02:58:33.319Z,75.00
2022-08-07T03:01:01.348Z,75.10
2022-08-07T03:03:29.655Z,75.00
2022-08-07T03:06:16.318Z,75.20
2022-08-07T03:08:52.075Z,75.40
2022-08-07T03:11:18.415Z,75.40
2022-08-07T03:13:51.457Z,75.40
2022-08-07T03:16:28.017Z,75.50
2022-08-07T03:18:54.218Z,75.70
2022-08-07T03:21:21.700Z,75.50
2022-08-07T03:24:17.610Z,75.60
2022-08-07T03:26:51.357Z,75.60
2022-08-07T03:29:22.939Z,75.60
2022-08-07T03:31:54.645Z,75.70
2022-08-07T03:34:22.864Z,75.50
2022-08-07T03:36:53.907Z,75.70
2022-08-07T03:39:45.879Z,75.60
2022-08-07T03:42:06.946Z,75.90
2022-08-07T03:44:34.964Z,76.10
2022-08-07T03:47:11.343Z,76.20
2022-08-07T03:49:41.025Z,76.30
2022-08-07T03:52:22.395Z,76.30
2022-08-07T03:54:54.259Z,76.20
2022-08-07T03:58:33.518Z,76.30
2022-08-07T04:00:08.523Z,76.50
2022-08-07T04:02:36.685Z,76.60
2022-08-07T04:05:07.556Z,76.60
2022-08-07T04:07:36.220Z,76.60
2022-08-07T04:10:08.933Z,76.50
2022-08-07T04:12:42.003Z,76.60
2022-08-07T04:15:08.680Z,76.70
2022-08-07T04:18:57.148Z,76.70
2022-08-07T04:20:24.103Z,76.70
2022-08-07T04:22:53.475Z,76.80
2022-08-07T04:25:29.259Z,76.50
2022-08-07T04:27:59.222Z,76.50
2022-08-07T04:30:39.498Z,76.70
2022-08-07T04:33:13.868Z,76.80
2022-08-07T04:35:43.303Z,77.00
2022-08-07T04:38:16.497Z,77.00
2022-08-07T04:40:52.073Z,76.90
2022-08-07T04:44:10.111Z,76.90
2022-08-07T04:46:59.530Z,76.90
2022-08-07T04:49:25.915Z,77.00
2022-08-07T04:51:54.862Z,77.00
2022-08-07T04:54:41.579Z,77.00
2022-08-07T04:58:26.002Z,76.90
2022-08-07T05:00:18.818Z,77.00
2022-08-07T05:02:50.446Z,77.10
2022-08-07T05:05:53.057Z,77.00
2022-08-07T05:08:45.441Z,76.90
2022-08-07T05:11:26.103Z,76.90
2022-08-07T05:14:56.077Z,76.90
2022-08-07T05:17:00.688Z,76.90
2022-08-07T05:19:44.933Z,76.70
2022-08-07T05:22:12.289Z,77.20
2022-08-07T05:24:45.499Z,76.70
2022-08-07T05:28:03.482Z,76.60
2022-08-07T05:30:03.251Z,76.50
2022-08-07T05:32:30.195Z,76.50
2022-08-07T05:34:57.257Z,76.60
2022-08-07T05:37:25.393Z,76.40
2022-08-07T05:40:18.442Z,75.80
2022-08-07T05:42:39.675Z,75.30
2022-08-07T05:45:14.500Z,74.70
2022-08-07T05:48:02.118Z,74.20
2022-08-07T05:50:30.323Z,73.60
2022-08-07T05:52:56.706Z,73.00
2022-08-07T05:55:23.344Z,72.60
2022-08-07T05:58:10.402Z,72.30
2022-08-07T06:00:38.638Z,72.20
2022-08-07T06:03:09.318Z,71.80
2022-08-07T06:05:35.303Z,71.00
2022-08-07T06:08:13.469Z,70.50
2022-08-07T06:10:51.992Z,70.20
2022-08-07T06:14:10.934Z,69.70
2022-08-07T06:16:07.409Z,69.30
2022-08-07T06:18:36.493Z,69.30
2022-08-07T06:22:15.027Z,68.00
2022-08-07T06:24:46.328Z,67.30
2022-08-07T06:26:41.016Z,66.30
2022-08-07T06:29:07.944Z,65.60
2022-08-07T06:31:46.531Z,64.90
2022-08-07T06:34:16.216Z,64.10
2022-08-07T06:36:46.414Z,63.20
2022-08-07T06:40:16.702Z,62.20
2022-08-07T06:42:04.022Z,61.60
2022-08-07T06:44:34.196Z,60.70
2022-08-07T06:47:10.230Z,59.50
2022-08-07T06:49:52.449Z,58.30
2022-08-07T06:52:31.256Z,57.00
2022-08-07T06:55:34.340Z,56.10
2022-08-07T06:57:50.944Z,54.80
2022-08-07T07:00:19.886Z,53.80
2022-08-07T07:02:54.289Z,52.90
2022-08-07T07:06:05.608Z,51.60
2022-08-07T07:08:18.135Z,51.00
2022-08-07T07:10:54.944Z,49.40
2022-08-07T07:13:43.505Z,48.50
2022-08-07T07:16:19.621Z,48.70
2022-08-07T07:18:49.422Z,46.80
2022-08-07T07:21:20.069Z,46.60
2022-08-07T07:24:08.486Z,46.20
2022-08-07T07:26:37.795Z,45.10
2022-08-07T07:29:56.933Z,44.80
2022-08-07T07:32:00.644Z,44.20
2022-08-07T07:34:30.798Z,43.70
2022-08-07T07:37:05.398Z,43.40
2022-08-07T07:39:54.835Z,43.20
2022-08-07T07:42:32.451Z,43.30
2022-08-07T07:45:06.343Z,43.10
2022-08-07T07:47:51.742Z,42.20
2022-08-07T07:50:35.274Z,42.00
2022-08-07T07:53:13.576Z,41.90
2022-08-07T07:55:57.571Z,41.70
2022-08-07T07:58:28.030Z,41.50
2022-08-07T08:00:55.106Z,40.60
2022-08-07T08:04:06.160Z,39.80
2022-08-07T08:06:11.556Z,39.70
2022-08-07T08:08:41.988Z,39.30
2022-08-07T08:11:16.423Z,38.90
2022-08-07T08:13:53.782Z,38.60
2022-08-07T08:16:25.060Z,38.20
2022-08-07T08:18:52.704Z,37.70
2022-08-07T08:21:55.830Z,37.40
2022-08-07T08:24:44.938Z,36.60
2022-08-07T08:27:13.766Z,36.40
2022-08-07T08:29:55.461Z,36.50
2022-08-07T08:32:25.147Z,36.20
2022-08-07T08:34:53.226Z,34.70
2022-08-07T08:38:01.684Z,35.30
2022-08-07T08:40:11.475Z,34.30
2022-08-07T08:42:45.137Z,33.30
2022-08-07T08:45:20.637Z,33.30
2022-08-07T08:48:04.213Z,33.30
2022-08-07T08:50:39.081Z,32.80
2022-08-07T08:53:05.813Z,33.30
2022-08-07T08:55:55.496Z,32.80
2022-08-07T08:58:25.054Z,32.30
2022-08-07T09:01:00.929Z,32.60
2022-08-07T09:03:55.424Z,32.40
2022-08-07T09:06:42.664Z,31.30
2022-08-07T09:09:36.538Z,31.00
2022-08-07T09:12:30.174Z,30.80
2022-08-07T09:15:00.489Z,30.00
2022-08-07T09:18:10.114Z,29.70
2022-08-07T09:20:58.066Z,29.90
2022-08-07T09:24:31.269Z,30.10
2022-08-07T09:26:31.287Z,30.40
2022-08-07T09:30:01.575Z,29.90
2022-08-07T09:32:21.117Z,29.80
2022-08-07T09:34:53.814Z,29.80
2022-08-07T09:37:47.870Z,29.00
2022-08-07T09:40:29.377Z,29.00
2022-08-07T09:42:56.512Z,28.80
2022-08-07T09:47:51.623Z,27.50
2022-08-07T09:48:56.073Z,27.70
2022-08-07T09:52:09.787Z,28.00
2022-08-07T09:54:40.525Z,27.90
2022-08-07T09:57:25.806Z,27.80
2022-08-07T10:00:14.567Z,27.30
2022-08-07T10:02:55.619Z,27.90
2022-08-07T10:06:00.078Z,27.30
2022-08-07T10:08:17.067Z,26.90
2022-08-07T10:11:59.542Z,26.40
2022-08-07T10:14:01.566Z,26.40
2022-08-07T10:16:46.870Z,27.10
2022-08-07T10:19:17.503Z,27.40
2022-08-07T10:22:14.523Z,28.10
2022-08-07T10:24:33.432Z,28.00
2022-08-07T10:27:06.805Z,28.40
2022-08-07T10:29:45.982Z,27.80
2022-08-07T10:32:36.566Z,28.20
2022-08-07T10:35:26.563Z,28.30
2022-08-07T10:38:46.465Z,28.00
2022-08-07T10:41:07.703Z,27.20
2022-08-07T10:44:07.540Z,27.30
2022-08-07T10:46:46.887Z,26.90
2022-08-07T10:49:14.069Z,27.40
2022-08-07T10:52:02.279Z,26.60
2022-08-07T10:55:01.272Z,26.90
2022-08-07T10:57:41.743Z,27.80
2022-08-07T11:00:09.030Z,27.60
2022-08-07T11:02:38.486Z,27.40
2022-08-07T11:05:10.964Z,27.20
2022-08-07T11:08:02.784Z,27.00
2022-08-07T11:10:41.723Z,27.00
2022-08-07T11:13:42.292Z,26.50
2022-08-07T11:16:00.264Z,25.90
2022-08-07T11:18:33.119Z,26.80
2022-08-07T11:20:59.421Z,27.20
2022-08-07T11:24:09.967Z,27.20
2022-08-07T11:26:50.363Z,27.00
2022-08-07T11:29:40.928Z,26.70
2022-08-07T11:32:14.787Z,26.20
2022-08-07T11:35:00.972Z,26.10
2022-08-07T11:37:57.267Z,26.40
2022-08-07T11:40:23.652Z,25.80
2022-08-07T11:42:59.069Z,26.10
2022-08-07T11:45:49.946Z,26.60
2022-08-07T11:48:29.806Z,26.90
2022-08-07T11:51:08.945Z,26.70
2022-08-07T11:53:35.629Z,26.10
2022-08-07T11:56:27.998Z,26.50
2022-08-07T11:59:00.491Z,27.60
2022-08-07T12:01:59.373Z,27.40
2022-08-07T12:04:42.344Z,27.10
2022-08-07T12:07:26.938Z,26.80
2022-08-07T12:09:57.825Z,26.30
2022-08-07T12:12:37.187Z,25.90
2022-08-07T12:15:08.244Z,25.60
2022-08-07T12:17:58.644Z,25.90
2022-08-07T12:20:30.716Z,25.70
2022-08-07T12:23:17.939Z,25.30
2022-08-07T12:26:05.759Z,25.20
2022-08-07T12:29:01.000Z,25.20
2022-08-07T12:31:53.248Z,25.00
2022-08-07T12:34:27.572Z,24.50
2022-08-07T12:36:54.457Z,24.70
2022-08-07T12:39:44.506Z,24.50
2022-08-07T12:42:09.768Z,24.90
2022-08-07T12:44:40.234Z,25.60
2022-08-07T12:47:13.931Z,26.50
2022-08-07T12:50:04.940Z,26.80
2022-08-07T12:52:34.616Z,26.40
2022-08-07T12:55:21.013Z,26.30
2022-08-07T12:58:01.239Z,26.70
2022-08-07T13:00:35.951Z,26.10
2022-08-07T13:03:27.535Z,26.00
2022-08-07T13:06:27.793Z,26.30
2022-08-07T13:10:20.427Z,26.20
2022-08-07T13:12:15.243Z,26.20
2022-08-07T13:14:50.947Z,26.20
2022-08-07T13:17:39.808Z,25.80
2022-08-07T13:20:15.961Z,25.70
2022-08-07T13:22:52.526Z,25.50
2022-08-07T13:25:31.681Z,25.90
2022-08-07T13:28:13.483Z,25.60
2022-08-07T13:30:49.114Z,25.50
2022-08-07T13:34:29.973Z,25.70
2022-08-07T13:36:25.895Z,26.20
2022-08-07T13:38:58.374Z,26.30
2022-08-07T13:41:29.849Z,26.20
2022-08-07T13:43:59.955Z,26.20
2022-08-07T13:46:33.405Z,26.20
2022-08-07T13:49:00.977Z,25.90
2022-08-07T13:52:05.000Z,26.20
2022-08-07T13:54:16.542Z,26.40
2022-08-07T13:56:52.065Z,26.20
2022-08-07T13:59:24.973Z,26.30
2022-08-07T14:02:07.069Z,26.50
2022-08-07T14:04:54.753Z,26.40
2022-08-07T14:07:23.868Z,26.60
2022-08-07T14:10:12.295Z,26.60
2022-08-07T14:12:54.898Z,26.70
2022-08-07T14:15:35.999Z,26.70
2022-08-07T14:18:23.417Z,26.70
2022-08-07T14:20:54.658Z,27.50
2022-08-07T14:23:59.053Z,27.50
2022-08-07T14:26:28.118Z,27.80
2022-08-07T14:29:04.390Z,28.10
2022-08-07T14:31:33.992Z,28.20
2022-08-07T14:34:11.153Z,28.60
2022-08-07T14:36:47.136Z,29.40
2022-08-07T14:40:16.042Z,29.50
2022-08-07T14:42:19.666Z,29.50
2022-08-07T14:44:52.197Z,30.50
2022-08-07T14:47:18.809Z,30.60
2022-08-07T14:49:57.582Z,31.40
2022-08-07T14:52:28.030Z,31.70
2022-08-07T14:54:56.711Z,31.50
2022-08-07T14:57:55.128Z,31.60
2022-08-07T15:00:12.617Z,31.80
2022-08-07T15:02:57.227Z,31.70
2022-08-07T15:05:23.842Z,31.70
2022-08-07T15:07:52.425Z,31.60
2022-08-07T15:10:29.880Z,33.20
2022-08-07T15:13:00.723Z,33.30
2022-08-07T15:15:41.398Z,32.90
2022-08-07T15:18:33.481Z,33.70
2022-08-07T15:25:14.181Z,34.30
2022-08-07T15:26:47.058Z,34.90
2022-08-07T15:30:08.905Z,35.70
2022-08-07T15:32:02.817Z,35.20
2022-08-07T15:34:36.043Z,35.40
2022-08-07T15:39:56.457Z,35.50
2022-08-07T15:45:22.673Z,35.90
2022-08-07T15:48:01.174Z,36.50
2022-08-07T15:50:37.808Z,36.60
2022-08-07T15:53:51.771Z,37.10
2022-08-07T15:56:15.166Z,37.20
2022-08-07T15:58:57.505Z,37.40
2022-08-07T16:01:38.767Z,37.60
2022-08-07T16:04:14.645Z,37.40
2022-08-07T16:06:51.867Z,38.00
2022-08-07T16:09:41.123Z,38.90
2022-08-07T16:12:12.299Z,38.10
2022-08-07T16:14:41.825Z,38.90
2022-08-07T16:17:15.220Z,38.50
2022-08-07T16:20:01.087Z,38.90
2022-08-07T16:22:38.085Z,39.60
2022-08-07T16:25:10.329Z,38.90
2022-08-07T16:28:01.058Z,38.80
2022-08-07T16:30:32.464Z,39.20
2022-08-07T16:34:02.171Z,39.60
2022-08-07T16:36:19.792Z,39.50
2022-08-07T16:39:14.777Z,39.90
2022-08-07T16:41:59.425Z,40.10
2022-08-07T16:45:14.925Z,40.20
2022-08-07T16:47:56.587Z,39.90
2022-08-07T16:50:38.800Z,39.70
2022-08-07T16:53:48.310Z,40.20
2022-08-07T16:56:02.101Z,40.10
2022-08-07T16:59:11.408Z,40.30
2022-08-07T17:01:34.908Z,40.90
2022-08-07T17:04:00.955Z,40.80
2022-08-07T17:06:29.333Z,40.90
2022-08-07T17:09:10.589Z,41.50
2022-08-07T17:12:04.255Z,41.50
2022-08-07T17:14:36.032Z,41.50
2022-08-07T17:17:05.942Z,41.40
2022-08-07T17:20:03.497Z,41.60
2022-08-07T17:22:37.810Z,41.90
2022-08-07T17:25:04.795Z,42.00
2022-08-07T17:27:51.031Z,42.20
2022-08-07T17:30:20.495Z,42.70
2022-08-07T17:34:09.815Z,43.00
2022-08-07T17:35:56.684Z,42.80
2022-08-07T17:38:34.437Z,42.80
2022-08-07T17:42:01.181Z,42.90
2022-08-07T17:44:15.650Z,43.30
2022-08-07T17:47:16.995Z,43.20
2022-08-07T17:49:51.304Z,43.50
2022-08-07T17:52:46.451Z,43.80
2022-08-07T17:55:16.659Z,43.80
2022-08-07T17:58:30.530Z,44.30
2022-08-07T18:00:58.902Z,44.20
2022-08-07T18:03:53.985Z,44.50
2022-08-07T18:06:36.832Z,44.80
2022-08-07T18:09:05.706Z,45.00
2022-08-07T18:12:17.545Z,45.50
2022-08-07T18:14:54.143Z,45.40
2022-08-07T18:18:44.994Z,45.50
2022-08-07T18:21:03.386Z,45.60
2022-08-07T18:23:42.179Z,45.70
2022-08-07T18:26:17.194Z,46.50
2022-08-07T18:28:58.639Z,46.50
2022-08-07T18:31:51.241Z,47.10
2022-08-07T18:34:40.912Z,47.40
2022-08-07T18:38:59.590Z,48.00
2022-08-07T18:40:42.951Z,48.30
2022-08-07T18:43:15.123Z,49.00
2022-08-07T18:46:24.649Z,48.80
2022-08-07T18:50:31.210Z,48.90
2022-08-07T18:52:35.607Z,49.30
2022-08-07T18:54:27.897Z,50.20
2022-08-07T18:57:29.667Z,50.50
2022-08-07T19:00:04.418Z,50.70
2022-08-07T19:02:55.281Z,51.00
2022-08-07T19:06:02.558Z,51.20
2022-08-07T19:08:23.840Z,51.50
2022-08-07T19:10:52.623Z,51.80
2022-08-07T19:13:22.882Z,52.50
2022-08-07T19:16:04.438Z,52.70
2022-08-07T19:18:48.945Z,53.30
2022-08-07T19:21:51.385Z,53.50
2022-08-07T19:24:30.516Z,53.80
2022-08-07T19:28:58.070Z,53.80
2022-08-07T19:31:00.403Z,54.10
2022-08-07T19:32:44.536Z,54.40
2022-08-07T19:35:15.148Z,55.00
2022-08-07T19:37:55.119Z,54.70
2022-08-07T19:40:31.198Z,54.60
2022-08-07T19:42:59.968Z,54.50
2022-08-07T19:46:00.942Z,54.30
2022-08-07T19:48:18.622Z,54.30
2022-08-07T19:50:53.535Z,54.30
2022-08-07T19:54:35.148Z,54.20
2022-08-07T19:56:13.631Z,54.30
2022-08-07T19:58:56.400Z,54.40
2022-08-07T20:01:22.406Z,54.40
2022-08-07T20:04:08.760Z,54.40
2022-08-07T20:06:43.170Z,54.50
2022-08-07T20:09:46.396Z,54.70
2022-08-07T20:12:22.879Z,54.70
2022-08-07T20:14:53.530Z,54.70
2022-08-07T20:17:21.139Z,54.80
2022-08-07T20:19:58.612Z,55.20
2022-08-07T20:22:29.274Z,56.00
2022-08-07T20:25:06.779Z,56.50
2022-08-07T20:27:48.195Z,56.50
2022-08-07T20:30:30.148Z,56.40
2022-08-07T20:32:58.034Z,56.40
2022-08-07T20:35:54.541Z,56.50
2022-08-07T20:38:29.462Z,56.80
2022-08-07T20:40:59.062Z,56.80
2022-08-07T20:43:32.403Z,56.80
2022-08-07T20:46:26.874Z,56.90
2022-08-07T20:48:58.054Z,57.10
2022-08-07T20:51:40.639Z,57.20
2022-08-07T20:54:30.184Z,58.00
2022-08-07T20:57:08.212Z,57.50
2022-08-07T21:00:07.202Z,57.60
2022-08-07T21:02:54.089Z,57.70
2022-08-07T21:05:42.911Z,57.80
2022-08-07T21:08:13.782Z,58.10
2022-08-07T21:10:42.814Z,58.30
2022-08-07T21:13:18.088Z,58.40
2022-08-07T21:16:00.770Z,58.80
2022-08-07T21:18:33.981Z,59.90
2022-08-07T21:21:00.756Z,59.80
2022-08-07T21:23:34.489Z,59.90
2022-08-07T21:26:17.453Z,59.90
2022-08-07T21:28:53.988Z,60.00
2022-08-07T21:32:41.704Z,60.10
2022-08-07T21:34:26.793Z,60.30
2022-08-07T21:36:58.247Z,60.40
2022-08-07T21:39:45.935Z,60.50
2022-08-07T21:45:42.015Z,61.00
2022-08-07T21:48:28.722Z,61.20
2022-08-07T21:51:20.294Z,61.40
2022-08-07T21:53:52.968Z,61.60
2022-08-07T21:56:36.342Z,62.30
2022-08-07T21:59:09.031Z,62.40
2022-08-07T22:02:10.154Z,62.40
2022-08-07T22:04:24.900Z,62.50
2022-08-07T22:07:01.054Z,62.50
2022-08-07T22:09:37.974Z,62.60
2022-08-07T22:12:17.652Z,62.90
2022-08-07T22:14:59.729Z,62.90
2022-08-07T22:17:35.971Z,63.10
2022-08-07T22:20:06.179Z,63.20
2022-08-07T22:22:44.791Z,63.30
2022-08-07T22:25:18.004Z,63.90
2022-08-07T22:28:07.426Z,64.20
2022-08-07T22:30:53.061Z,64.40
2022-08-07T22:33:53.374Z,65.30
2022-08-07T22:36:14.719Z,65.10
2022-08-07T22:38:48.286Z,65.00
2022-08-07T22:42:02.300Z,65.10
2022-08-07T22:44:13.376Z,65.30
2022-08-07T22:47:03.810Z,65.20
2022-08-07T22:50:02.457Z,65.30
2022-08-07T22:52:37.632Z,65.40
2022-08-07T22:55:22.587Z,65.70
2022-08-07T22:57:59.065Z,65.80
2022-08-07T23:00:29.288Z,65.80
2022-08-07T23:03:12.344Z,65.90
2022-08-07T23:06:09.841Z,66.00
2022-08-07T23:08:30.287Z,66.10
2022-08-07T23:11:10.311Z,66.50
2022-08-07T23:14:05.195Z,66.50
2022-08-07T23:16:54.685Z,66.80
2022-08-07T23:20:03.817Z,67.00
2022-08-07T23:22:49.355Z,67.10
2022-08-07T23:25:39.013Z,67.10
2022-08-07T23:28:21.792Z,67.00
2022-08-07T23:31:06.293Z,67.20
2022-08-07T23:34:36.419Z,67.30
2022-08-07T23:36:39.578Z,67.60
2022-08-07T23:39:17.115Z,67.90
2022-08-07T23:42:04.289Z,68.10
2022-08-07T23:44:43.685Z,68.10
2022-08-07T23:47:29.695Z,68.00
2022-08-07T23:50:01.989Z,67.90
2022-08-07T23:52:59.791Z,68.10
2022-08-07T23:55:51.970Z,68.30
2022-08-07T23:58:37.226Z,68.30
